createdAt,value
2017-10-28T00:01:54.577Z,12.63
2017-10-28T00:04:21.206Z,8.73
2017-10-28T00:06:47.846Z,12.00
2017-10-28T00:09:14.462Z,27.97
2017-10-28T00:11:41.087Z,10.27
2017-10-28T00:14:07.692Z,6.27
2017-10-28T00:16:34.319Z,12.03
2017-10-28T00:19:00.944Z,11.70
2017-10-28T00:21:27.570Z,12.17
2017-10-28T00:23:54.205Z,9.70
2017-10-28T00:26:20.848Z,5.50
2017-10-28T00:28:47.446Z,9.23
2017-10-28T00:31:19.943Z,7.50
2017-10-28T00:33:52.409Z,12.53
2017-10-28T00:36:19.019Z,6.10
2017-10-28T00:38:45.658Z,7.37
2017-10-28T00:41:12.278Z,13.83
2017-10-28T00:43:38.907Z,12.67
2017-10-28T00:46:05.513Z,9.63
2017-10-28T00:48:32.134Z,13.80
2017-10-28T00:50:58.747Z,12.70
2017-10-28T00:53:25.369Z,14.90
2017-10-28T00:55:52.002Z,7.20
2017-10-28T00:58:18.630Z,13.27
2017-10-28T01:00:45.270Z,17.40
2017-10-28T01:03:11.879Z,8.10
2017-10-28T01:05:38.494Z,14.57
2017-10-28T01:08:05.150Z,19.23
2017-10-28T01:10:31.750Z,15.90
2017-10-28T01:12:58.394Z,10.30
2017-10-28T01:15:25.035Z,14.73
2017-10-28T01:17:51.654Z,14.73
2017-10-28T01:20:18.294Z,13.30
2017-10-28T01:22:44.919Z,13.33
2017-10-28T01:25:11.558Z,7.90
2017-10-28T01:27:38.173Z,11.83
2017-10-28T01:30:04.798Z,10.23
2017-10-28T01:32:31.454Z,10.40
2017-10-28T01:34:59.026Z,13.10
2017-10-28T01:37:25.674Z,10.97
2017-10-28T01:39:52.287Z,16.37
2017-10-28T01:42:18.899Z,11.20
2017-10-28T01:44:45.581Z,11.53
2017-10-28T01:47:12.227Z,11.67
2017-10-28T01:49:39.797Z,11.30
2017-10-28T01:52:06.420Z,12.83
2017-10-28T01:54:33.033Z,21.97
2017-10-28T01:56:59.667Z,11.20
2017-10-28T01:59:26.282Z,9.83
2017-10-28T02:01:52.918Z,17.50
2017-10-28T02:04:19.539Z,7.80
2017-10-28T02:06:46.187Z,12.93
2017-10-28T02:09:12.806Z,9.83
2017-10-28T02:11:39.417Z,14.80
2017-10-28T02:14:06.063Z,10.40
2017-10-28T02:16:32.715Z,11.67
2017-10-28T02:18:59.334Z,19.40
2017-10-28T02:21:25.969Z,10.93
2017-10-28T02:23:52.602Z,9.50
2017-10-28T02:26:19.222Z,12.00
2017-10-28T02:28:45.862Z,9.60
2017-10-28T02:31:12.483Z,16.83
2017-10-28T02:33:39.086Z,7.77
2017-10-28T02:36:05.703Z,9.80
2017-10-28T02:38:32.338Z,18.53
2017-10-28T02:40:58.945Z,16.33
2017-10-28T02:43:25.546Z,9.07
2017-10-28T02:45:52.178Z,11.40
2017-10-28T02:48:18.807Z,16.63
2017-10-28T02:50:45.430Z,9.27
2017-10-28T02:53:12.071Z,14.97
2017-10-28T02:55:38.686Z,11.83
2017-10-28T02:58:05.337Z,9.33
2017-10-28T03:00:31.943Z,13.30
2017-10-28T03:02:58.575Z,9.30
2017-10-28T03:05:25.186Z,12.90
2017-10-28T03:07:51.831Z,13.90
2017-10-28T03:10:18.451Z,15.73
2017-10-28T03:12:45.056Z,15.07
2017-10-28T03:15:11.682Z,9.67
2017-10-28T03:17:38.314Z,8.27
2017-10-28T03:20:04.955Z,13.33
2017-10-28T03:22:31.579Z,11.40
2017-10-28T03:24:58.225Z,11.50
2017-10-28T03:27:24.834Z,7.73
2017-10-28T03:29:51.478Z,12.20
2017-10-28T03:32:18.124Z,11.37
2017-10-28T03:34:44.739Z,15.30
2017-10-28T03:37:11.356Z,9.07
2017-10-28T03:39:37.979Z,15.07
2017-10-28T03:42:04.615Z,9.20
2017-10-28T03:44:31.225Z,11.63
2017-10-28T03:46:57.855Z,9.43
2017-10-28T03:49:24.482Z,15.03
2017-10-28T03:51:51.094Z,8.77
2017-10-28T03:54:17.690Z,14.37
2017-10-28T03:56:44.335Z,10.27
2017-10-28T03:59:10.953Z,13.13
2017-10-28T04:01:37.588Z,11.50
2017-10-28T04:04:04.194Z,12.77
2017-10-28T04:06:30.826Z,13.60
2017-10-28T04:08:57.451Z,14.73
2017-10-28T04:11:24.051Z,15.77
2017-10-28T04:13:50.706Z,17.60
2017-10-28T04:16:17.334Z,14.70
2017-10-28T04:18:43.990Z,14.87
2017-10-28T04:21:10.610Z,16.83
2017-10-28T04:23:37.226Z,18.17
2017-10-28T04:26:03.868Z,12.70
2017-10-28T04:28:30.482Z,11.53
2017-10-28T04:30:57.124Z,17.93
2017-10-28T04:33:23.731Z,15.70
2017-10-28T04:35:50.403Z,17.43
2017-10-28T04:38:17.047Z,17.17
2017-10-28T04:40:43.674Z,20.37
2017-10-28T04:43:10.316Z,17.23
2017-10-28T04:45:36.926Z,17.23
2017-10-28T04:48:03.550Z,14.63
2017-10-28T04:50:31.182Z,16.90
2017-10-28T04:52:57.807Z,16.63
2017-10-28T04:55:24.458Z,16.60
2017-10-28T04:57:51.085Z,23.50
2017-10-28T05:00:17.714Z,18.57
2017-10-28T05:02:44.395Z,17.83
2017-10-28T05:05:11.039Z,18.65
2017-10-28T05:07:37.671Z,15.33
2017-10-28T05:10:04.303Z,29.40
2017-10-28T05:12:30.964Z,16.40
2017-10-28T05:14:57.578Z,22.50
2017-10-28T05:17:25.099Z,21.13
2017-10-28T05:19:51.714Z,19.95
2017-10-28T05:22:18.359Z,30.80
2017-10-28T05:24:44.990Z,24.60
2017-10-28T05:27:11.619Z,23.33
2017-10-28T05:29:38.272Z,16.17
2017-10-28T05:32:04.910Z,17.30
2017-10-28T05:34:31.542Z,22.33
2017-10-28T05:36:58.154Z,14.20
2017-10-28T05:39:24.796Z,30.90
2017-10-28T05:41:51.430Z,13.70
2017-10-28T05:44:18.046Z,22.58
2017-10-28T05:46:44.682Z,18.90
2017-10-28T05:49:11.297Z,18.43
2017-10-28T05:51:37.944Z,15.97
2017-10-28T05:54:07.479Z,13.62
2017-10-28T05:56:34.118Z,20.07
2017-10-28T05:59:00.746Z,17.93
2017-10-28T06:01:27.367Z,16.90
2017-10-28T06:03:54.031Z,16.73
2017-10-28T06:06:20.645Z,28.47
2017-10-28T06:08:47.278Z,13.47
2017-10-28T06:11:13.911Z,17.53
2017-10-28T06:13:40.524Z,14.60
2017-10-28T06:16:07.167Z,20.83
2017-10-28T06:18:33.792Z,20.63
2017-10-28T06:21:00.429Z,22.10
2017-10-28T06:23:27.066Z,18.53
2017-10-28T06:25:53.690Z,25.60
2017-10-28T06:28:20.321Z,16.00
2017-10-28T06:30:46.978Z,14.87
2017-10-28T06:33:13.614Z,15.03
2017-10-28T06:35:40.237Z,20.43
2017-10-28T06:38:06.870Z,22.23
2017-10-28T06:40:33.508Z,19.77
2017-10-28T06:43:00.146Z,18.23
2017-10-28T06:45:26.820Z,12.60
2017-10-28T06:47:53.473Z,15.90
2017-10-28T06:50:20.098Z,21.03
2017-10-28T06:52:46.755Z,18.57
2017-10-28T06:55:13.400Z,18.60
2017-10-28T06:57:40.030Z,25.37
2017-10-28T07:00:06.682Z,22.20
2017-10-28T07:02:33.321Z,17.57
2017-10-28T07:04:59.934Z,29.07
2017-10-28T07:07:26.546Z,15.73
2017-10-28T07:09:53.199Z,15.13
2017-10-28T07:12:19.812Z,18.83
2017-10-28T07:14:46.432Z,18.43
2017-10-28T07:17:13.071Z,20.07
2017-10-28T07:19:39.731Z,16.07
2017-10-28T07:22:06.389Z,12.43
2017-10-28T07:24:33.046Z,14.43
2017-10-28T07:26:59.682Z,12.93
2017-10-28T07:29:26.303Z,17.13
2017-10-28T07:31:52.916Z,11.10
2017-10-28T07:34:19.551Z,12.50
2017-10-28T07:36:46.248Z,14.90
2017-10-28T07:39:12.870Z,11.63
2017-10-28T07:41:39.500Z,11.70
2017-10-28T07:44:06.464Z,22.30
2017-10-28T07:46:33.095Z,20.73
2017-10-28T07:48:59.718Z,26.00
2017-10-28T07:51:26.379Z,17.07
2017-10-28T07:53:52.991Z,13.90
2017-10-28T07:56:19.639Z,15.63
2017-10-28T07:58:46.300Z,20.13
2017-10-28T08:01:12.961Z,16.63
2017-10-28T08:03:45.261Z,18.00
2017-10-28T08:06:12.029Z,14.97
2017-10-28T08:08:38.642Z,16.47
2017-10-28T08:11:05.313Z,20.87
2017-10-28T08:13:31.962Z,18.33
2017-10-28T08:15:58.597Z,18.70
2017-10-28T08:18:25.244Z,22.97
2017-10-28T08:20:51.864Z,17.20
2017-10-28T08:23:18.520Z,19.10
2017-10-28T08:25:45.146Z,13.80
2017-10-28T08:28:11.781Z,13.50
2017-10-28T08:30:38.398Z,14.13
2017-10-28T08:33:05.052Z,14.23
2017-10-28T08:35:31.650Z,16.47
2017-10-28T08:37:58.304Z,24.60
2017-10-28T08:40:24.958Z,16.67
2017-10-28T08:42:52.438Z,18.80
2017-10-28T08:45:19.082Z,12.23
2017-10-28T08:47:45.740Z,19.10
2017-10-28T08:50:12.379Z,14.67
2017-10-28T08:52:39.047Z,11.77
2017-10-28T08:55:08.590Z,17.37
2017-10-28T08:57:35.213Z,14.00
2017-10-28T09:00:01.838Z,14.00
2017-10-28T09:02:28.466Z,13.73
2017-10-28T09:04:55.091Z,14.20
2017-10-28T09:07:21.747Z,20.77
2017-10-28T09:09:48.361Z,14.10
2017-10-28T09:12:15.007Z,12.03
2017-10-28T09:14:42.253Z,16.27
2017-10-28T09:17:08.896Z,17.73
2017-10-28T09:19:35.549Z,15.33
2017-10-28T09:22:02.228Z,13.80
2017-10-28T09:24:28.857Z,14.93
2017-10-28T09:26:55.486Z,15.67
2017-10-28T09:29:22.151Z,12.17
2017-10-28T09:31:48.898Z,16.23
2017-10-28T09:34:15.531Z,13.03
2017-10-28T09:36:42.147Z,13.23
2017-10-28T09:39:08.891Z,16.03
2017-10-28T09:41:35.527Z,15.70
2017-10-28T09:44:02.150Z,18.33
2017-10-28T09:46:28.788Z,12.07
2017-10-28T09:48:55.416Z,16.60
2017-10-28T09:51:22.051Z,35.30
2017-10-28T09:53:48.670Z,21.87
2017-10-28T09:56:15.298Z,18.00
2017-10-28T09:58:41.939Z,24.07
2017-10-28T10:01:08.576Z,16.47
2017-10-28T10:03:35.212Z,14.57
2017-10-28T10:06:01.853Z,13.67
2017-10-28T10:08:28.504Z,13.47
2017-10-28T10:10:55.126Z,17.00
2017-10-28T10:13:21.749Z,16.73
2017-10-28T10:15:48.378Z,11.90
2017-10-28T10:18:14.987Z,17.83
2017-10-28T10:20:41.635Z,13.07
2017-10-28T10:23:08.288Z,18.10
2017-10-28T10:25:34.914Z,16.37
2017-10-28T10:28:01.527Z,11.83
2017-10-28T10:30:28.157Z,12.33
2017-10-28T10:32:54.820Z,18.57
2017-10-28T10:35:21.438Z,14.10
2017-10-28T10:37:48.099Z,17.73
2017-10-28T10:40:14.755Z,22.33
2017-10-28T10:42:41.358Z,25.37
2017-10-28T10:45:08.014Z,16.97
2017-10-28T10:47:34.643Z,15.80
2017-10-28T10:50:01.289Z,12.77
2017-10-28T10:52:27.919Z,17.27
2017-10-28T10:54:54.879Z,15.27
2017-10-28T10:57:21.704Z,18.50
2017-10-28T10:59:48.330Z,13.03
2017-10-28T11:02:14.991Z,14.53
2017-10-28T11:04:41.670Z,19.97
2017-10-28T11:07:08.314Z,16.60
2017-10-28T11:09:34.933Z,13.80
2017-10-28T11:12:01.588Z,11.87
2017-10-28T11:14:28.234Z,17.83
2017-10-28T11:16:54.872Z,14.10
2017-10-28T11:19:21.544Z,12.37
2017-10-28T11:21:48.170Z,23.43
2017-10-28T11:24:14.819Z,14.23
2017-10-28T11:26:41.434Z,21.43
2017-10-28T11:29:08.070Z,14.03
2017-10-28T11:31:34.722Z,14.87
2017-10-28T11:34:01.379Z,20.80
2017-10-28T11:36:27.986Z,15.90
2017-10-28T11:38:54.620Z,17.83
2017-10-28T11:41:21.284Z,15.50
2017-10-28T11:43:47.909Z,22.10
2017-10-28T11:46:14.529Z,14.57
2017-10-28T11:48:41.167Z,19.10
2017-10-28T11:51:07.823Z,15.97
2017-10-28T11:53:34.451Z,35.30
2017-10-28T11:56:01.079Z,12.93
2017-10-28T11:58:27.747Z,24.33
2017-10-28T12:00:54.359Z,20.37
2017-10-28T12:03:20.999Z,20.20
2017-10-28T12:05:47.650Z,14.00
2017-10-28T12:08:14.258Z,22.17
2017-10-28T12:10:40.907Z,22.63
2017-10-28T12:13:07.520Z,13.87
2017-10-28T12:15:34.141Z,15.03
2017-10-28T12:18:00.787Z,18.40
2017-10-28T12:20:27.406Z,22.23
2017-10-28T12:22:54.050Z,23.17
2017-10-28T12:25:20.689Z,13.63
2017-10-28T12:27:47.343Z,14.93
2017-10-28T12:30:13.983Z,15.33
2017-10-28T12:32:40.604Z,16.67
2017-10-28T12:35:07.271Z,18.80
2017-10-28T12:37:33.893Z,18.63
2017-10-28T12:40:01.234Z,21.57
2017-10-28T12:42:27.889Z,16.97
2017-10-28T12:44:54.544Z,15.93
2017-10-28T12:47:21.208Z,16.83
2017-10-28T12:49:47.861Z,13.77
2017-10-28T12:52:14.489Z,17.50
2017-10-28T12:54:41.122Z,15.93
2017-10-28T12:57:07.779Z,19.60
2017-10-28T12:59:34.416Z,21.50
2017-10-28T13:02:01.065Z,20.10
2017-10-28T13:04:27.690Z,16.03
2017-10-28T13:06:54.332Z,17.13
2017-10-28T13:09:20.966Z,17.90
2017-10-28T13:11:47.726Z,13.33
2017-10-28T13:14:14.414Z,26.03
2017-10-28T13:16:41.284Z,21.63
2017-10-28T13:19:07.927Z,14.70
2017-10-28T13:21:34.576Z,14.77
2017-10-28T13:24:01.798Z,13.00
2017-10-28T13:26:28.470Z,15.40
2017-10-28T13:28:55.106Z,16.03
2017-10-28T13:31:21.750Z,16.90
2017-10-28T13:33:48.389Z,15.97
2017-10-28T13:36:15.091Z,19.43
2017-10-28T13:38:41.791Z,20.33
2017-10-28T13:41:08.410Z,19.27
2017-10-28T13:43:35.057Z,12.50
2017-10-28T13:46:01.692Z,32.87
2017-10-28T13:48:28.343Z,16.43
2017-10-28T13:50:54.970Z,14.67
2017-10-28T13:53:21.601Z,25.53
2017-10-28T13:55:48.251Z,20.33
2017-10-28T13:58:14.886Z,22.80
2017-10-28T14:00:41.555Z,19.10
2017-10-28T14:03:08.210Z,15.47
2017-10-28T14:05:35.094Z,17.00
2017-10-28T14:08:02.588Z,18.73
2017-10-28T14:10:29.231Z,14.30
2017-10-28T14:12:55.876Z,15.90
2017-10-28T14:15:22.507Z,17.80
2017-10-28T14:17:49.132Z,12.60
2017-10-28T14:20:15.763Z,22.53
2017-10-28T14:22:42.401Z,17.03
2017-10-28T14:25:09.057Z,17.60
2017-10-28T14:27:35.705Z,17.27
2017-10-28T14:30:02.342Z,25.67
2017-10-28T14:32:30.179Z,12.20
2017-10-28T14:34:56.796Z,18.90
2017-10-28T14:37:23.461Z,16.07
2017-10-28T14:39:50.095Z,20.37
2017-10-28T14:42:16.818Z,19.40
2017-10-28T14:44:43.492Z,18.83
2017-10-28T14:47:10.123Z,16.23
2017-10-28T14:49:39.859Z,20.13
2017-10-28T14:52:06.627Z,15.87
2017-10-28T14:54:33.466Z,20.30
2017-10-28T14:57:00.111Z,16.40
2017-10-28T14:59:26.764Z,16.27
2017-10-28T15:01:53.614Z,16.33
2017-10-28T15:04:20.263Z,15.33
2017-10-28T15:06:46.928Z,24.57
2017-10-28T15:09:13.580Z,17.37
2017-10-28T15:11:40.223Z,22.13
2017-10-28T15:14:06.851Z,19.70
2017-10-28T15:16:33.523Z,22.90
2017-10-28T15:19:00.146Z,17.60
2017-10-28T15:21:26.770Z,18.67
2017-10-28T15:23:53.407Z,22.10
2017-10-28T15:26:20.031Z,19.03
2017-10-28T15:28:46.703Z,15.57
2017-10-28T15:31:13.332Z,22.97
2017-10-28T15:33:39.955Z,19.50
2017-10-28T15:36:06.647Z,15.47
2017-10-28T15:38:33.284Z,18.47
2017-10-28T15:40:59.904Z,21.60
2017-10-28T15:43:26.566Z,16.27
2017-10-28T15:45:53.864Z,18.53
2017-10-28T15:48:20.535Z,17.50
2017-10-28T15:50:47.160Z,22.63
2017-10-28T15:53:13.792Z,21.67
2017-10-28T15:55:40.455Z,19.93
2017-10-28T15:58:07.135Z,22.90
2017-10-28T16:00:33.811Z,22.83
2017-10-28T16:03:00.478Z,16.60
2017-10-28T16:05:27.093Z,20.67
2017-10-28T16:07:53.781Z,16.47
2017-10-28T16:10:20.540Z,17.87
2017-10-28T16:12:47.167Z,18.20
2017-10-28T16:15:13.782Z,23.20
2017-10-28T16:17:40.443Z,19.87
2017-10-28T16:20:07.091Z,23.40
2017-10-28T16:22:33.691Z,22.10
2017-10-28T16:25:00.338Z,17.23
2017-10-28T16:27:26.970Z,20.60
2017-10-28T16:29:53.619Z,19.73
2017-10-28T16:32:20.259Z,22.80
2017-10-28T16:34:46.876Z,22.33
2017-10-28T16:37:13.547Z,22.40
2017-10-28T16:39:40.163Z,19.87
2017-10-28T16:42:06.824Z,22.70
2017-10-28T16:44:33.459Z,21.13
2017-10-28T16:47:00.092Z,29.60
2017-10-28T16:49:26.709Z,25.87
2017-10-28T16:51:53.339Z,27.53
2017-10-28T16:54:19.968Z,28.40
2017-10-28T16:56:46.606Z,24.50
2017-10-28T16:59:13.251Z,23.57
2017-10-28T17:01:39.881Z,23.00
2017-10-28T17:04:06.514Z,22.03
2017-10-28T17:06:33.143Z,22.37
2017-10-28T17:09:00.323Z,27.90
2017-10-28T17:11:27.243Z,27.80
2017-10-28T17:13:54.759Z,21.83
2017-10-28T17:16:21.417Z,23.50
2017-10-28T17:18:48.035Z,22.27
2017-10-28T17:21:14.678Z,27.17
2017-10-28T17:23:41.327Z,30.10
2017-10-28T17:26:07.972Z,22.93
2017-10-28T17:28:34.603Z,32.20
2017-10-28T17:31:01.239Z,22.93
2017-10-28T17:33:27.888Z,24.77
2017-10-28T17:35:54.523Z,27.17
2017-10-28T17:38:21.183Z,28.10
2017-10-28T17:40:48.425Z,33.87
2017-10-28T17:43:15.056Z,28.70
2017-10-28T17:45:41.709Z,27.50
2017-10-28T17:48:08.326Z,26.13
2017-10-28T17:50:35.583Z,25.37
2017-10-28T17:53:02.249Z,30.63
2017-10-28T17:55:28.872Z,23.77
2017-10-28T17:57:55.524Z,31.47
2017-10-28T18:00:22.170Z,26.30
2017-10-28T18:02:48.837Z,24.87
2017-10-28T18:05:15.454Z,26.83
2017-10-28T18:07:42.070Z,28.70
2017-10-28T18:10:08.718Z,31.73
2017-10-28T18:12:35.347Z,28.60
2017-10-28T18:15:02.046Z,24.00
2017-10-28T18:17:28.686Z,23.67
2017-10-28T18:19:55.332Z,26.50
2017-10-28T18:22:21.970Z,25.60
2017-10-28T18:24:48.618Z,25.87
2017-10-28T18:27:15.266Z,25.90
2017-10-28T18:29:41.908Z,28.27
2017-10-28T18:32:08.544Z,26.60
2017-10-28T18:34:35.213Z,27.00
2017-10-28T18:37:01.840Z,25.30
2017-10-28T18:39:28.499Z,26.97
2017-10-28T18:41:55.169Z,25.20
2017-10-28T18:44:21.806Z,28.73
2017-10-28T18:46:48.460Z,26.63
2017-10-28T18:49:15.098Z,31.60
2017-10-28T18:51:41.747Z,26.43
2017-10-28T18:54:08.396Z,39.77
2017-10-28T18:56:35.087Z,28.60
2017-10-28T18:59:01.737Z,26.97
2017-10-28T19:01:28.370Z,31.63
2017-10-28T19:03:55.029Z,28.70
2017-10-28T19:06:21.676Z,30.23
2017-10-28T19:08:48.336Z,30.53
2017-10-28T19:11:14.992Z,29.30
2017-10-28T19:13:41.632Z,25.97
2017-10-28T19:16:08.261Z,31.00
2017-10-28T19:18:36.450Z,25.57
2017-10-28T19:21:03.091Z,28.67
2017-10-28T19:23:29.723Z,39.13
2017-10-28T19:25:56.394Z,27.97
2017-10-28T19:28:23.058Z,26.17
2017-10-28T19:30:49.698Z,27.63
2017-10-28T19:33:16.327Z,24.03
2017-10-28T19:35:42.967Z,27.83
2017-10-28T19:38:09.630Z,26.50
2017-10-28T19:40:36.261Z,26.63
2017-10-28T19:43:02.899Z,25.87
2017-10-28T19:45:29.563Z,24.50
2017-10-28T19:47:56.221Z,32.80
2017-10-28T19:50:22.883Z,29.93
2017-10-28T19:52:51.143Z,30.27
2017-10-28T19:55:19.212Z,30.57
2017-10-28T19:57:45.854Z,30.00
2017-10-28T20:00:12.484Z,26.43
2017-10-28T20:02:39.131Z,29.17
2017-10-28T20:05:05.775Z,30.50
2017-10-28T20:07:32.734Z,35.57
2017-10-28T20:09:59.384Z,32.80
2017-10-28T20:12:26.014Z,32.93
2017-10-28T20:14:53.578Z,33.20
2017-10-28T20:17:20.841Z,37.77
2017-10-28T20:19:47.508Z,39.13
2017-10-28T20:22:14.135Z,39.97
2017-10-28T20:24:40.796Z,41.57
2017-10-28T20:27:07.443Z,42.83
2017-10-28T20:29:34.082Z,47.90
2017-10-28T20:32:01.053Z,40.90
2017-10-28T20:34:27.709Z,37.80
2017-10-28T20:36:54.347Z,46.03
2017-10-28T20:39:20.988Z,40.87
2017-10-28T20:41:48.086Z,37.70
2017-10-28T20:44:14.720Z,37.43
2017-10-28T20:46:41.389Z,37.90
2017-10-28T20:49:08.046Z,37.33
2017-10-28T20:51:34.680Z,36.97
2017-10-28T20:54:01.348Z,36.23
2017-10-28T20:56:27.996Z,37.60
2017-10-28T20:58:54.675Z,37.47
2017-10-28T21:01:21.313Z,40.00
2017-10-28T21:03:47.990Z,35.70
2017-10-28T21:06:14.656Z,36.07
2017-10-28T21:08:41.289Z,32.47
2017-10-28T21:11:07.908Z,32.80
2017-10-28T21:13:34.584Z,30.00
2017-10-28T21:16:01.252Z,31.60
2017-10-28T21:18:27.901Z,34.77
2017-10-28T21:20:54.527Z,29.17
2017-10-28T21:23:21.188Z,30.60
2017-10-28T21:25:47.812Z,28.60
2017-10-28T21:28:14.427Z,27.27
2017-10-28T21:30:41.089Z,30.30
2017-10-28T21:33:07.730Z,29.67
2017-10-28T21:35:34.389Z,30.43
2017-10-28T21:38:01.016Z,25.60
2017-10-28T21:40:27.702Z,26.37
2017-10-28T21:42:54.340Z,29.93
2017-10-28T21:45:20.983Z,27.60
2017-10-28T21:47:47.639Z,25.17
2017-10-28T21:50:14.323Z,23.67
2017-10-28T21:52:40.968Z,25.60
2017-10-28T21:55:07.588Z,30.93
2017-10-28T21:57:34.220Z,36.20
2017-10-28T22:00:00.887Z,29.13
2017-10-28T22:02:27.526Z,26.03
2017-10-28T22:04:54.171Z,31.40
2017-10-28T22:07:20.830Z,26.97
2017-10-28T22:09:47.466Z,28.13
2017-10-28T22:12:14.083Z,30.67
2017-10-28T22:14:40.733Z,31.13
2017-10-28T22:17:07.356Z,38.23
2017-10-28T22:19:34.023Z,32.70
2017-10-28T22:22:00.687Z,37.13
2017-10-28T22:24:27.317Z,37.37
2017-10-28T22:26:53.968Z,34.30
2017-10-28T22:29:20.600Z,39.37
2017-10-28T22:31:47.294Z,32.97
2017-10-28T22:34:13.907Z,42.23
2017-10-28T22:36:40.557Z,33.47
2017-10-28T22:39:07.204Z,41.63
2017-10-28T22:41:33.850Z,36.93
2017-10-28T22:44:00.506Z,33.63
2017-10-28T22:46:27.132Z,34.00
2017-10-28T22:48:53.751Z,37.90
2017-10-28T22:51:20.415Z,32.03
2017-10-28T22:53:47.290Z,36.63
2017-10-28T22:56:13.931Z,29.53
2017-10-28T22:58:40.579Z,40.20
2017-10-28T23:01:07.203Z,31.43
2017-10-28T23:03:33.868Z,28.90
2017-10-28T23:06:00.486Z,33.50
2017-10-28T23:08:27.128Z,29.10
2017-10-28T23:10:53.787Z,32.20
2017-10-28T23:13:20.398Z,28.27
2017-10-28T23:15:47.065Z,26.00
2017-10-28T23:18:13.720Z,23.57
2017-10-28T23:20:40.359Z,36.37
2017-10-28T23:23:06.969Z,25.27
2017-10-28T23:25:33.626Z,24.57
2017-10-28T23:28:00.258Z,25.20
2017-10-28T23:30:26.883Z,32.57
2017-10-28T23:32:53.552Z,18.60
2017-10-28T23:35:20.176Z,37.50
2017-10-28T23:37:46.827Z,20.83
2017-10-28T23:40:13.454Z,27.70
2017-10-28T23:42:40.109Z,25.60
2017-10-28T23:45:06.742Z,26.53
2017-10-28T23:47:33.368Z,20.50
2017-10-28T23:49:59.987Z,21.37
2017-10-28T23:52:26.638Z,20.23
2017-10-28T23:54:53.270Z,20.17
2017-10-28T23:57:19.902Z,22.37
2017-10-28T23:59:46.518Z,24.23
